Touat Cheikh Sidi Mohamed Belkebir Airport

DAUA · Adrar, 阿尔及利亚

METAR DAUA · Touat Cheikh Sidi Mohamed Belkebir Airport

22 六月 07:00 LT
1h
罗盘
风向 的 风向 010° Touat Cheikh Sidi Mohamed Belkebir Airport 4/22
风: 12 kt, 4 beaufort

10 kt

6 kt
改变
0 ft 1.000 2.000 3.000 4.000 5.000
没有观察到明显的云
METAR DAUA 220600Z 01012KT 8000 NSC 29/M01 Q1008

METAR Touat Cheikh Sidi Mohamed Belkebir Airport - DAUA/AZR

Touat Cheikh Sidi Mohamed Belkebir Airport是,阿尔及利亚中的中型机场。 该机场位于纬度27,83760和经度-0,18641。 该机场有一条跑道: 4/22. 本场的ICAO机场代码为DAUA。 该机场的IATA代码为AZR。 机场在Alger FIR中。

该航空气象观测是针对Touat Cheikh Sidi Mohamed Belkebir Airport在2024年6月22日 07:00, 当地时间进行的。

机场观察

风向为010°,速度为12 kt。

可见度为8 km。

有没有观察到明显的云。 没有观察到天花板。

温度和风寒是29 °C。 露点为-1 °C,相对湿度为14%。 海平面上的气压为1008 hPa (QNH)。

白天

今天,太阳从06:05升起,在20:00降落。 这适用于Touat Cheikh Sidi Mohamed Belkebir Airport,世界夏令时可能有所不同。 当地时间与世界标准时间之间的时差为+1 小时。 夏令时目前正在进行中。

公司介绍

我们没有关于这个机场的公司信息。

体会

到Vliegles.nl去找飞行课程,跳伞和其他飞行体验。 浏览页面,了解Touat Cheikh Sidi Mohamed Belkebir Airport附近所有可用的活动。 你也可以使用搜索功能来寻找你所在地附近的特定飞行课程、跳伞或其他飞行体验。

跑道

Id 标题 侧风 逆风 侧风 %
4/22 040°-220° 6 kt 10 kt 50 %

逆风成分最大的方向会被突出显示,并用于横风计算。 这并不一定意味着这个方向在使用。

乌云

- NSC 没有观察到明显的云

温度 & 天气

温度 29 °C
露点 -1 °C
相对湿度 14%
Kp-index 0 (0-9)

白天

日出
06:05
中午
13:02
日落
20:00 (11:58)

小工具

你想在你的网站上有一个关于Touat Cheikh Sidi Mohamed Belkebir Airport的当前航空天气(METAR)的小部件吗?

显示HTML代码
报告变更